sensor_id;sensor_type;location;lat;lon;timestamp;temperature;humidity
4324;DHT22;2175;51.018;6.994;2023-04-06T00:01:28;2.30;99.90
4324;DHT22;2175;51.018;6.994;2023-04-06T00:03:53;2.40;99.90
4324;DHT22;2175;51.018;6.994;2023-04-06T00:06:19;2.40;99.90
4324;DHT22;2175;51.018;6.994;2023-04-06T00:08:45;2.30;99.90
4324;DHT22;2175;51.018;6.994;2023-04-06T00:11:11;2.30;99.90
4324;DHT22;2175;51.018;6.994;2023-04-06T00:13:36;2.30;99.90
4324;DHT22;2175;51.018;6.994;2023-04-06T00:16:02;2.40;99.90
4324;DHT22;2175;51.018;6.994;2023-04-06T00:18:28;2.20;99.90
4324;DHT22;2175;51.018;6.994;2023-04-06T00:20:54;2.20;99.90
4324;DHT22;2175;51.018;6.994;2023-04-06T00:23:19;2.20;99.90
4324;DHT22;2175;51.018;6.994;2023-04-06T00:25:45;2.10;99.90
4324;DHT22;2175;51.018;6.994;2023-04-06T00:28:11;2.10;99.90
4324;DHT22;2175;51.018;6.994;2023-04-06T00:30:36;2.10;99.90
4324;DHT22;2175;51.018;6.994;2023-04-06T00:33:02;2.00;99.90
4324;DHT22;2175;51.018;6.994;2023-04-06T00:35:28;2.00;99.90
4324;DHT22;2175;51.018;6.994;2023-04-06T00:37:53;2.10;99.90
4324;DHT22;2175;51.018;6.994;2023-04-06T00:40:19;2.00;99.90
4324;DHT22;2175;51.018;6.994;2023-04-06T00:42:44;2.00;99.90
4324;DHT22;2175;51.018;6.994;2023-04-06T00:45:10;2.00;99.90
4324;DHT22;2175;51.018;6.994;2023-04-06T00:47:36;2.00;99.90
4324;DHT22;2175;51.018;6.994;2023-04-06T00:50:02;1.90;99.90
4324;DHT22;2175;51.018;6.994;2023-04-06T00:52:28;1.70;99.90
4324;DHT22;2175;51.018;6.994;2023-04-06T00:54:53;1.60;99.90
4324;DHT22;2175;51.018;6.994;2023-04-06T00:57:19;1.60;99.90
4324;DHT22;2175;51.018;6.994;2023-04-06T00:59:45;1.70;99.90
4324;DHT22;2175;51.018;6.994;2023-04-06T01:02:11;1.70;99.90
4324;DHT22;2175;51.018;6.994;2023-04-06T01:04:37;1.70;99.90
4324;DHT22;2175;51.018;6.994;2023-04-06T01:07:03;1.60;99.90
4324;DHT22;2175;51.018;6.994;2023-04-06T01:09:29;1.60;99.90
4324;DHT22;2175;51.018;6.994;2023-04-06T01:11:56;1.70;99.90
4324;DHT22;2175;51.018;6.994;2023-04-06T01:14:22;1.60;99.90
4324;DHT22;2175;51.018;6.994;2023-04-06T01:16:48;1.60;99.90
4324;DHT22;2175;51.018;6.994;2023-04-06T01:19:14;1.60;99.90
4324;DHT22;2175;51.018;6.994;2023-04-06T01:21:40;1.50;99.90
4324;DHT22;2175;51.018;6.994;2023-04-06T01:24:08;1.50;99.90
4324;DHT22;2175;51.018;6.994;2023-04-06T01:26:34;1.50;99.90
4324;DHT22;2175;51.018;6.994;2023-04-06T01:29:01;1.60;99.90
4324;DHT22;2175;51.018;6.994;2023-04-06T01:31:27;1.50;99.90
4324;DHT22;2175;51.018;6.994;2023-04-06T01:33:53;1.60;99.90
4324;DHT22;2175;51.018;6.994;2023-04-06T01:36:19;1.60;99.90
4324;DHT22;2175;51.018;6.994;2023-04-06T01:38:45;1.60;99.90
4324;DHT22;2175;51.018;6.994;2023-04-06T01:41:11;1.50;99.90
4324;DHT22;2175;51.018;6.994;2023-04-06T01:43:37;1.40;99.90
4324;DHT22;2175;51.018;6.994;2023-04-06T01:46:03;1.20;99.90
4324;DHT22;2175;51.018;6.994;2023-04-06T01:48:29;1.30;99.90
4324;DHT22;2175;51.018;6.994;2023-04-06T01:50:55;1.20;99.90
4324;DHT22;2175;51.018;6.994;2023-04-06T01:53:21;1.30;99.90
4324;DHT22;2175;51.018;6.994;2023-04-06T01:55:47;1.30;99.90
4324;DHT22;2175;51.018;6.994;2023-04-06T01:58:13;1.30;99.90
4324;DHT22;2175;51.018;6.994;2023-04-06T02:00:39;1.30;99.90
4324;DHT22;2175;51.018;6.994;2023-04-06T02:03:04;1.40;99.90
4324;DHT22;2175;51.018;6.994;2023-04-06T02:05:31;1.40;99.90
4324;DHT22;2175;51.018;6.994;2023-04-06T02:08:06;1.30;99.90
4324;DHT22;2175;51.018;6.994;2023-04-06T02:10:33;1.20;99.90
4324;DHT22;2175;51.018;6.994;2023-04-06T02:12:59;1.20;99.90
4324;DHT22;2175;51.018;6.994;2023-04-06T02:15:25;1.20;99.90
4324;DHT22;2175;51.018;6.994;2023-04-06T02:17:51;1.10;99.90
4324;DHT22;2175;51.018;6.994;2023-04-06T02:20:17;1.20;99.90
4324;DHT22;2175;51.018;6.994;2023-04-06T02:22:42;1.20;99.90
4324;DHT22;2175;51.018;6.994;2023-04-06T02:25:08;1.20;99.90
4324;DHT22;2175;51.018;6.994;2023-04-06T02:27:34;1.20;99.90
4324;DHT22;2175;51.018;6.994;2023-04-06T02:30:00;1.20;99.90
4324;DHT22;2175;51.018;6.994;2023-04-06T02:32:26;1.20;99.90
4324;DHT22;2175;51.018;6.994;2023-04-06T02:34:52;1.10;99.90
4324;DHT22;2175;51.018;6.994;2023-04-06T02:37:17;1.20;99.90
4324;DHT22;2175;51.018;6.994;2023-04-06T02:39:43;1.10;99.90
4324;DHT22;2175;51.018;6.994;2023-04-06T02:42:09;1.10;99.90
4324;DHT22;2175;51.018;6.994;2023-04-06T02:44:34;1.10;99.90
4324;DHT22;2175;51.018;6.994;2023-04-06T02:47:00;1.20;99.90
4324;DHT22;2175;51.018;6.994;2023-04-06T02:49:26;1.10;99.90
4324;DHT22;2175;51.018;6.994;2023-04-06T02:51:51;1.10;99.90
4324;DHT22;2175;51.018;6.994;2023-04-06T02:54:17;1.00;99.90
4324;DHT22;2175;51.018;6.994;2023-04-06T02:56:43;1.10;99.90
4324;DHT22;2175;51.018;6.994;2023-04-06T02:59:09;1.00;99.90
4324;DHT22;2175;51.018;6.994;2023-04-06T03:01:35;1.00;99.90
4324;DHT22;2175;51.018;6.994;2023-04-06T03:04:01;0.90;99.90
4324;DHT22;2175;51.018;6.994;2023-04-06T03:06:27;0.90;99.90
4324;DHT22;2175;51.018;6.994;2023-04-06T03:08:52;0.90;99.90
4324;DHT22;2175;51.018;6.994;2023-04-06T03:11:18;0.90;99.90
4324;DHT22;2175;51.018;6.994;2023-04-06T03:13:44;0.90;99.90
4324;DHT22;2175;51.018;6.994;2023-04-06T03:16:10;0.80;99.90
4324;DHT22;2175;51.018;6.994;2023-04-06T03:18:35;0.80;99.90
4324;DHT22;2175;51.018;6.994;2023-04-06T03:21:01;0.70;99.90
4324;DHT22;2175;51.018;6.994;2023-04-06T03:23:27;0.70;99.90
4324;DHT22;2175;51.018;6.994;2023-04-06T03:25:52;0.90;99.90
4324;DHT22;2175;51.018;6.994;2023-04-06T03:28:18;0.80;99.90
4324;DHT22;2175;51.018;6.994;2023-04-06T03:30:45;0.70;99.90
4324;DHT22;2175;51.018;6.994;2023-04-06T03:33:11;0.80;99.90
4324;DHT22;2175;51.018;6.994;2023-04-06T03:35:36;0.60;99.90
4324;DHT22;2175;51.018;6.994;2023-04-06T03:38:03;0.60;99.90
4324;DHT22;2175;51.018;6.994;2023-04-06T03:40:30;0.60;99.90
4324;DHT22;2175;51.018;6.994;2023-04-06T03:42:55;0.70;99.90
4324;DHT22;2175;51.018;6.994;2023-04-06T03:45:21;0.70;99.90
4324;DHT22;2175;51.018;6.994;2023-04-06T03:47:47;0.70;99.90
4324;DHT22;2175;51.018;6.994;2023-04-06T03:50:12;0.70;99.90
4324;DHT22;2175;51.018;6.994;2023-04-06T03:52:38;0.70;99.90
4324;DHT22;2175;51.018;6.994;2023-04-06T03:55:04;0.60;99.90
4324;DHT22;2175;51.018;6.994;2023-04-06T03:57:30;0.70;99.90
4324;DHT22;2175;51.018;6.994;2023-04-06T03:59:56;0.60;99.90
4324;DHT22;2175;51.018;6.994;2023-04-06T04:02:21;0.60;99.90
4324;DHT22;2175;51.018;6.994;2023-04-06T04:04:47;0.60;99.90
4324;DHT22;2175;51.018;6.994;2023-04-06T04:07:12;0.50;99.90
4324;DHT22;2175;51.018;6.994;2023-04-06T04:09:38;0.70;99.90
4324;DHT22;2175;51.018;6.994;2023-04-06T04:12:04;0.60;99.90
4324;DHT22;2175;51.018;6.994;2023-04-06T04:14:29;0.60;99.90
4324;DHT22;2175;51.018;6.994;2023-04-06T04:16:55;0.50;99.90
4324;DHT22;2175;51.018;6.994;2023-04-06T04:19:21;0.50;99.90
4324;DHT22;2175;51.018;6.994;2023-04-06T04:21:46;0.60;99.90
4324;DHT22;2175;51.018;6.994;2023-04-06T04:24:13;0.60;99.90
4324;DHT22;2175;51.018;6.994;2023-04-06T04:26:39;0.60;99.90
4324;DHT22;2175;51.018;6.994;2023-04-06T04:29:04;0.50;99.90
4324;DHT22;2175;51.018;6.994;2023-04-06T04:31:30;0.50;99.90
4324;DHT22;2175;51.018;6.994;2023-04-06T04:33:56;0.50;99.90
4324;DHT22;2175;51.018;6.994;2023-04-06T04:36:22;0.40;99.90
4324;DHT22;2175;51.018;6.994;2023-04-06T04:38:48;0.50;99.90
4324;DHT22;2175;51.018;6.994;2023-04-06T04:41:14;0.40;99.90
4324;DHT22;2175;51.018;6.994;2023-04-06T04:43:39;0.50;99.90
4324;DHT22;2175;51.018;6.994;2023-04-06T04:46:05;0.50;99.90
4324;DHT22;2175;51.018;6.994;2023-04-06T04:48:32;0.50;99.90
4324;DHT22;2175;51.018;6.994;2023-04-06T04:50:57;0.50;99.90
4324;DHT22;2175;51.018;6.994;2023-04-06T04:53:23;0.50;99.90
4324;DHT22;2175;51.018;6.994;2023-04-06T04:55:49;0.60;99.90
4324;DHT22;2175;51.018;6.994;2023-04-06T04:58:14;0.60;99.90
4324;DHT22;2175;51.018;6.994;2023-04-06T05:00:42;0.60;99.90
4324;DHT22;2175;51.018;6.994;2023-04-06T05:03:08;0.60;99.90
4324;DHT22;2175;51.018;6.994;2023-04-06T05:05:35;0.50;99.90
4324;DHT22;2175;51.018;6.994;2023-04-06T05:08:01;0.60;99.90
4324;DHT22;2175;51.018;6.994;2023-04-06T05:10:27;0.60;99.90
4324;DHT22;2175;51.018;6.994;2023-04-06T05:12:52;0.60;99.90
4324;DHT22;2175;51.018;6.994;2023-04-06T05:15:18;0.70;99.90
4324;DHT22;2175;51.018;6.994;2023-04-06T05:17:43;0.60;99.90
4324;DHT22;2175;51.018;6.994;2023-04-06T05:20:10;0.60;99.90
4324;DHT22;2175;51.018;6.994;2023-04-06T05:22:35;0.60;99.90
4324;DHT22;2175;51.018;6.994;2023-04-06T05:25:02;0.60;99.90
4324;DHT22;2175;51.018;6.994;2023-04-06T05:27:28;0.60;99.90
4324;DHT22;2175;51.018;6.994;2023-04-06T05:29:54;0.70;99.90
4324;DHT22;2175;51.018;6.994;2023-04-06T05:32:20;0.70;99.90
4324;DHT22;2175;51.018;6.994;2023-04-06T05:34:48;0.70;99.90
4324;DHT22;2175;51.018;6.994;2023-04-06T05:37:15;0.80;99.90
4324;DHT22;2175;51.018;6.994;2023-04-06T05:39:41;0.80;99.90
4324;DHT22;2175;51.018;6.994;2023-04-06T05:42:07;0.90;99.90
4324;DHT22;2175;51.018;6.994;2023-04-06T05:44:33;1.00;99.90
4324;DHT22;2175;51.018;6.994;2023-04-06T05:46:58;1.10;99.90
4324;DHT22;2175;51.018;6.994;2023-04-06T05:49:24;1.10;99.90
4324;DHT22;2175;51.018;6.994;2023-04-06T05:51:50;1.10;99.90
4324;DHT22;2175;51.018;6.994;2023-04-06T05:54:16;1.10;99.90
4324;DHT22;2175;51.018;6.994;2023-04-06T05:56:41;1.20;99.90
4324;DHT22;2175;51.018;6.994;2023-04-06T05:59:07;1.20;99.90
4324;DHT22;2175;51.018;6.994;2023-04-06T06:01:33;1.20;99.90
4324;DHT22;2175;51.018;6.994;2023-04-06T06:04:03;1.30;99.90
4324;DHT22;2175;51.018;6.994;2023-04-06T06:06:29;1.40;99.90
4324;DHT22;2175;51.018;6.994;2023-04-06T06:08:57;1.50;99.90
4324;DHT22;2175;51.018;6.994;2023-04-06T06:11:27;1.60;99.90
4324;DHT22;2175;51.018;6.994;2023-04-06T06:13:52;1.70;99.90
4324;DHT22;2175;51.018;6.994;2023-04-06T06:16:19;1.80;99.90
4324;DHT22;2175;51.018;6.994;2023-04-06T06:18:45;1.90;99.90
4324;DHT22;2175;51.018;6.994;2023-04-06T06:21:10;2.00;99.90
4324;DHT22;2175;51.018;6.994;2023-04-06T06:23:41;2.10;99.90
4324;DHT22;2175;51.018;6.994;2023-04-06T06:26:07;2.10;99.90
4324;DHT22;2175;51.018;6.994;2023-04-06T06:28:33;2.30;99.90
4324;DHT22;2175;51.018;6.994;2023-04-06T06:30:58;2.50;99.90
4324;DHT22;2175;51.018;6.994;2023-04-06T06:33:24;2.50;99.90
4324;DHT22;2175;51.018;6.994;2023-04-06T06:35:51;2.60;99.90
4324;DHT22;2175;51.018;6.994;2023-04-06T06:38:17;2.70;99.90
4324;DHT22;2175;51.018;6.994;2023-04-06T06:40:45;2.80;99.90
4324;DHT22;2175;51.018;6.994;2023-04-06T06:43:14;3.00;99.90
4324;DHT22;2175;51.018;6.994;2023-04-06T06:45:40;3.10;99.90
4324;DHT22;2175;51.018;6.994;2023-04-06T06:48:05;3.20;99.90
4324;DHT22;2175;51.018;6.994;2023-04-06T06:50:31;3.30;99.90
4324;DHT22;2175;51.018;6.994;2023-04-06T06:52:57;3.30;99.90
4324;DHT22;2175;51.018;6.994;2023-04-06T06:55:22;3.40;99.90
4324;DHT22;2175;51.018;6.994;2023-04-06T06:57:48;3.60;99.90
4324;DHT22;2175;51.018;6.994;2023-04-06T07:00:14;3.70;99.90
4324;DHT22;2175;51.018;6.994;2023-04-06T07:02:40;3.90;99.90
4324;DHT22;2175;51.018;6.994;2023-04-06T07:05:06;4.10;99.90
4324;DHT22;2175;51.018;6.994;2023-04-06T07:07:32;4.10;99.90
4324;DHT22;2175;51.018;6.994;2023-04-06T07:09:59;4.30;99.90
4324;DHT22;2175;51.018;6.994;2023-04-06T07:12:25;4.40;99.90
4324;DHT22;2175;51.018;6.994;2023-04-06T07:14:51;4.50;99.90
4324;DHT22;2175;51.018;6.994;2023-04-06T07:17:16;4.70;99.90
4324;DHT22;2175;51.018;6.994;2023-04-06T07:19:42;4.80;99.90
4324;DHT22;2175;51.018;6.994;2023-04-06T07:22:08;5.00;99.90
4324;DHT22;2175;51.018;6.994;2023-04-06T07:24:33;5.20;99.90
4324;DHT22;2175;51.018;6.994;2023-04-06T07:26:59;5.40;99.90
4324;DHT22;2175;51.018;6.994;2023-04-06T07:29:28;5.50;99.90
4324;DHT22;2175;51.018;6.994;2023-04-06T07:31:55;5.70;99.90
4324;DHT22;2175;51.018;6.994;2023-04-06T07:34:21;6.00;99.90
4324;DHT22;2175;51.018;6.994;2023-04-06T07:36:47;6.30;99.90
4324;DHT22;2175;51.018;6.994;2023-04-06T07:39:12;6.60;99.90
4324;DHT22;2175;51.018;6.994;2023-04-06T07:41:38;6.90;99.90
4324;DHT22;2175;51.018;6.994;2023-04-06T07:44:04;7.20;99.90
4324;DHT22;2175;51.018;6.994;2023-04-06T07:46:30;7.50;99.90
4324;DHT22;2175;51.018;6.994;2023-04-06T07:48:57;7.90;99.90
4324;DHT22;2175;51.018;6.994;2023-04-06T07:51:23;8.30;99.90
4324;DHT22;2175;51.018;6.994;2023-04-06T07:53:50;8.60;99.90
4324;DHT22;2175;51.018;6.994;2023-04-06T07:56:16;9.00;99.90
4324;DHT22;2175;51.018;6.994;2023-04-06T07:58:42;9.50;99.90
4324;DHT22;2175;51.018;6.994;2023-04-06T08:01:08;10.30;99.90
4324;DHT22;2175;51.018;6.994;2023-04-06T08:03:34;10.60;99.90
4324;DHT22;2175;51.018;6.994;2023-04-06T08:06:00;10.80;99.90
4324;DHT22;2175;51.018;6.994;2023-04-06T08:08:26;11.00;99.90
4324;DHT22;2175;51.018;6.994;2023-04-06T08:10:52;11.20;99.90
4324;DHT22;2175;51.018;6.994;2023-04-06T08:13:17;11.50;99.90
4324;DHT22;2175;51.018;6.994;2023-04-06T08:15:43;12.10;99.90
4324;DHT22;2175;51.018;6.994;2023-04-06T08:18:09;12.80;99.90
4324;DHT22;2175;51.018;6.994;2023-04-06T08:20:35;12.90;99.90
4324;DHT22;2175;51.018;6.994;2023-04-06T08:23:01;12.90;99.90
4324;DHT22;2175;51.018;6.994;2023-04-06T08:25:26;12.70;97.90
4324;DHT22;2175;51.018;6.994;2023-04-06T08:27:52;12.60;98.50
4324;DHT22;2175;51.018;6.994;2023-04-06T08:30:18;12.90;99.90
4324;DHT22;2175;51.018;6.994;2023-04-06T08:32:45;13.60;99.90
4324;DHT22;2175;51.018;6.994;2023-04-06T08:35:10;14.40;98.90
4324;DHT22;2175;51.018;6.994;2023-04-06T08:37:36;14.40;95.60
4324;DHT22;2175;51.018;6.994;2023-04-06T08:40:02;14.40;96.70
4324;DHT22;2175;51.018;6.994;2023-04-06T08:42:32;14.50;93.50
4324;DHT22;2175;51.018;6.994;2023-04-06T08:44:58;14.70;95.30
4324;DHT22;2175;51.018;6.994;2023-04-06T08:47:24;15.00;95.20
4324;DHT22;2175;51.018;6.994;2023-04-06T08:49:51;14.80;90.60
4324;DHT22;2175;51.018;6.994;2023-04-06T08:52:18;14.60;93.60
4324;DHT22;2175;51.018;6.994;2023-04-06T08:54:45;15.00;94.70
4324;DHT22;2175;51.018;6.994;2023-04-06T08:57:11;15.50;94.10
4324;DHT22;2175;51.018;6.994;2023-04-06T08:59:37;15.50;92.20
4324;DHT22;2175;51.018;6.994;2023-04-06T09:02:04;15.50;90.50
4324;DHT22;2175;51.018;6.994;2023-04-06T09:04:33;15.40;89.20
4324;DHT22;2175;51.018;6.994;2023-04-06T09:07:00;15.50;90.90
4324;DHT22;2175;51.018;6.994;2023-04-06T09:09:26;16.40;89.30
4324;DHT22;2175;51.018;6.994;2023-04-06T09:11:52;16.50;86.90
4324;DHT22;2175;51.018;6.994;2023-04-06T09:14:36;16.80;83.90
4324;DHT22;2175;51.018;6.994;2023-04-06T09:17:05;16.20;86.20
4324;DHT22;2175;51.018;6.994;2023-04-06T09:19:31;16.00;89.40
4324;DHT22;2175;51.018;6.994;2023-04-06T09:22:04;15.50;84.80
4324;DHT22;2175;51.018;6.994;2023-04-06T09:24:46;15.70;84.70
4324;DHT22;2175;51.018;6.994;2023-04-06T09:27:13;16.30;80.40
4324;DHT22;2175;51.018;6.994;2023-04-06T09:29:43;16.50;86.50
4324;DHT22;2175;51.018;6.994;2023-04-06T09:32:10;16.60;80.40
4324;DHT22;2175;51.018;6.994;2023-04-06T09:34:39;16.40;83.40
4324;DHT22;2175;51.018;6.994;2023-04-06T09:37:15;16.00;82.50
4324;DHT22;2175;51.018;6.994;2023-04-06T09:39:41;15.90;83.20
4324;DHT22;2175;51.018;6.994;2023-04-06T09:42:07;15.70;89.60
4324;DHT22;2175;51.018;6.994;2023-04-06T09:44:32;15.50;90.60
4324;DHT22;2175;51.018;6.994;2023-04-06T09:46:58;15.40;89.70
4324;DHT22;2175;51.018;6.994;2023-04-06T09:49:24;15.30;92.00
4324;DHT22;2175;51.018;6.994;2023-04-06T09:52:00;15.00;89.60
4324;DHT22;2175;51.018;6.994;2023-04-06T09:54:29;14.90;91.50
4324;DHT22;2175;51.018;6.994;2023-04-06T10:05:23;15.40;92.80
4324;DHT22;2175;51.018;6.994;2023-04-06T10:07:54;15.40;94.70
4324;DHT22;2175;51.018;6.994;2023-04-06T10:10:21;15.30;94.20
4324;DHT22;2175;51.018;6.994;2023-04-06T10:12:48;15.60;91.90
4324;DHT22;2175;51.018;6.994;2023-04-06T10:15:14;15.20;93.90
4324;DHT22;2175;51.018;6.994;2023-04-06T10:17:39;15.40;96.10
4324;DHT22;2175;51.018;6.994;2023-04-06T10:22:55;14.80;92.10
4324;DHT22;2175;51.018;6.994;2023-04-06T10:25:32;14.70;93.50
4324;DHT22;2175;51.018;6.994;2023-04-06T10:28:08;14.70;95.20
4324;DHT22;2175;51.018;6.994;2023-04-06T10:30:35;14.60;99.50
4324;DHT22;2175;51.018;6.994;2023-04-06T10:33:17;14.70;97.70
4324;DHT22;2175;51.018;6.994;2023-04-06T10:35:43;14.90;97.80
4324;DHT22;2175;51.018;6.994;2023-04-06T10:38:09;15.20;97.10
4324;DHT22;2175;51.018;6.994;2023-04-06T10:40:38;14.80;97.70
4324;DHT22;2175;51.018;6.994;2023-04-06T10:43:23;14.80;97.20
4324;DHT22;2175;51.018;6.994;2023-04-06T10:45:56;14.80;94.60
4324;DHT22;2175;51.018;6.994;2023-04-06T10:48:22;14.80;95.70
4324;DHT22;2175;51.018;6.994;2023-04-06T10:50:50;14.80;95.40
4324;DHT22;2175;51.018;6.994;2023-04-06T10:53:26;15.20;95.40
4324;DHT22;2175;51.018;6.994;2023-04-06T10:55:54;15.10;95.30
4324;DHT22;2175;51.018;6.994;2023-04-06T10:58:24;14.80;96.80
4324;DHT22;2175;51.018;6.994;2023-04-06T11:00:51;14.80;99.30
4324;DHT22;2175;51.018;6.994;2023-04-06T11:03:17;14.70;96.50
4324;DHT22;2175;51.018;6.994;2023-04-06T11:05:44;14.90;97.80
4324;DHT22;2175;51.018;6.994;2023-04-06T11:08:10;14.90;95.10
4324;DHT22;2175;51.018;6.994;2023-04-06T11:10:36;14.70;95.40
4324;DHT22;2175;51.018;6.994;2023-04-06T11:13:02;14.50;96.30
4324;DHT22;2175;51.018;6.994;2023-04-06T11:15:34;14.70;98.50
4324;DHT22;2175;51.018;6.994;2023-04-06T11:18:03;14.90;98.70
4324;DHT22;2175;51.018;6.994;2023-04-06T11:20:29;15.10;98.70
4324;DHT22;2175;51.018;6.994;2023-04-06T11:22:55;15.10;98.30
4324;DHT22;2175;51.018;6.994;2023-04-06T11:25:20;14.90;96.20
4324;DHT22;2175;51.018;6.994;2023-04-06T11:27:46;14.40;96.30
4324;DHT22;2175;51.018;6.994;2023-04-06T11:30:14;14.40;96.10
4324;DHT22;2175;51.018;6.994;2023-04-06T11:32:44;14.60;97.80
4324;DHT22;2175;51.018;6.994;2023-04-06T11:35:21;14.40;96.10
4324;DHT22;2175;51.018;6.994;2023-04-06T11:37:51;14.40;99.00
4324;DHT22;2175;51.018;6.994;2023-04-06T11:40:24;14.50;99.50
4324;DHT22;2175;51.018;6.994;2023-04-06T11:42:54;14.70;98.70
4324;DHT22;2175;51.018;6.994;2023-04-06T11:45:20;14.30;99.30
4324;DHT22;2175;51.018;6.994;2023-04-06T11:47:58;14.10;99.10
4324;DHT22;2175;51.018;6.994;2023-04-06T11:50:32;14.30;99.80
4324;DHT22;2175;51.018;6.994;2023-04-06T11:53:02;14.70;98.90
4324;DHT22;2175;51.018;6.994;2023-04-06T11:55:28;14.80;99.90
4324;DHT22;2175;51.018;6.994;2023-04-06T11:57:54;14.80;98.40
4324;DHT22;2175;51.018;6.994;2023-04-06T12:00:21;14.70;98.90
4324;DHT22;2175;51.018;6.994;2023-04-06T12:02:48;14.80;98.30
4324;DHT22;2175;51.018;6.994;2023-04-06T12:05:15;14.70;97.50
4324;DHT22;2175;51.018;6.994;2023-04-06T12:07:40;14.70;95.70
4324;DHT22;2175;51.018;6.994;2023-04-06T12:10:07;14.60;99.70
4324;DHT22;2175;51.018;6.994;2023-04-06T12:12:33;14.50;95.50
4324;DHT22;2175;51.018;6.994;2023-04-06T12:15:07;14.10;96.80
4324;DHT22;2175;51.018;6.994;2023-04-06T12:17:33;14.20;99.10
4324;DHT22;2175;51.018;6.994;2023-04-06T12:19:59;14.30;96.90
4324;DHT22;2175;51.018;6.994;2023-04-06T12:22:24;14.40;99.30
4324;DHT22;2175;51.018;6.994;2023-04-06T12:24:50;14.50;97.40
4324;DHT22;2175;51.018;6.994;2023-04-06T12:27:16;14.30;98.30
4324;DHT22;2175;51.018;6.994;2023-04-06T12:29:42;14.40;97.10
4324;DHT22;2175;51.018;6.994;2023-04-06T12:32:07;14.50;97.00
4324;DHT22;2175;51.018;6.994;2023-04-06T12:34:34;14.40;96.80
4324;DHT22;2175;51.018;6.994;2023-04-06T12:36:59;14.30;97.50
4324;DHT22;2175;51.018;6.994;2023-04-06T12:39:27;14.40;98.00
4324;DHT22;2175;51.018;6.994;2023-04-06T12:41:53;14.60;97.40
4324;DHT22;2175;51.018;6.994;2023-04-06T12:44:18;14.50;98.50
4324;DHT22;2175;51.018;6.994;2023-04-06T12:46:44;14.40;98.30
4324;DHT22;2175;51.018;6.994;2023-04-06T12:49:10;14.40;97.80
4324;DHT22;2175;51.018;6.994;2023-04-06T12:51:36;14.40;97.70
4324;DHT22;2175;51.018;6.994;2023-04-06T12:54:03;14.60;98.70
4324;DHT22;2175;51.018;6.994;2023-04-06T12:56:29;14.70;98.40
4324;DHT22;2175;51.018;6.994;2023-04-06T12:58:58;14.70;99.90
4324;DHT22;2175;51.018;6.994;2023-04-06T13:01:23;14.60;99.70
4324;DHT22;2175;51.018;6.994;2023-04-06T13:03:51;14.30;99.10
4324;DHT22;2175;51.018;6.994;2023-04-06T13:06:17;14.30;99.40
4324;DHT22;2175;51.018;6.994;2023-04-06T13:08:43;14.00;99.90
4324;DHT22;2175;51.018;6.994;2023-04-06T13:11:08;13.80;99.90
4324;DHT22;2175;51.018;6.994;2023-04-06T13:13:34;13.80;99.90
4324;DHT22;2175;51.018;6.994;2023-04-06T13:16:06;13.90;99.90
4324;DHT22;2175;51.018;6.994;2023-04-06T13:18:32;14.00;99.90
4324;DHT22;2175;51.018;6.994;2023-04-06T13:20:58;13.80;99.90
4324;DHT22;2175;51.018;6.994;2023-04-06T13:23:27;13.80;99.90
4324;DHT22;2175;51.018;6.994;2023-04-06T13:26:05;13.70;99.90
4324;DHT22;2175;51.018;6.994;2023-04-06T13:28:32;13.50;99.90
4324;DHT22;2175;51.018;6.994;2023-04-06T13:30:58;13.40;99.90
4324;DHT22;2175;51.018;6.994;2023-04-06T13:33:30;13.50;99.90
4324;DHT22;2175;51.018;6.994;2023-04-06T13:35:56;13.40;99.90
4324;DHT22;2175;51.018;6.994;2023-04-06T13:38:22;13.30;99.90
4324;DHT22;2175;51.018;6.994;2023-04-06T13:40:51;13.30;99.90
4324;DHT22;2175;51.018;6.994;2023-04-06T13:43:19;13.30;99.90
4324;DHT22;2175;51.018;6.994;2023-04-06T13:45:50;13.00;99.90
4324;DHT22;2175;51.018;6.994;2023-04-06T13:48:17;13.20;99.90
4324;DHT22;2175;51.018;6.994;2023-04-06T13:50:43;13.20;99.90
4324;DHT22;2175;51.018;6.994;2023-04-06T13:53:10;13.30;99.90
4324;DHT22;2175;51.018;6.994;2023-04-06T13:55:35;13.30;99.90
4324;DHT22;2175;51.018;6.994;2023-04-06T13:58:01;13.20;99.90
4324;DHT22;2175;51.018;6.994;2023-04-06T14:00:27;13.00;99.90
4324;DHT22;2175;51.018;6.994;2023-04-06T14:02:56;12.80;1.00
4324;DHT22;2175;51.018;6.994;2023-04-06T14:05:22;12.80;99.90
4324;DHT22;2175;51.018;6.994;2023-04-06T14:07:49;12.70;1.00
4324;DHT22;2175;51.018;6.994;2023-04-06T14:10:15;12.50;1.00
4324;DHT22;2175;51.018;6.994;2023-04-06T14:12:42;12.30;99.90
4324;DHT22;2175;51.018;6.994;2023-04-06T14:15:10;12.10;1.00
4324;DHT22;2175;51.018;6.994;2023-04-06T14:17:37;12.10;99.90
4324;DHT22;2175;51.018;6.994;2023-04-06T14:20:04;12.00;1.00
4324;DHT22;2175;51.018;6.994;2023-04-06T14:22:30;12.00;1.00
4324;DHT22;2175;51.018;6.994;2023-04-06T14:24:56;11.90;99.90
4324;DHT22;2175;51.018;6.994;2023-04-06T14:27:22;11.80;1.00
4324;DHT22;2175;51.018;6.994;2023-04-06T14:29:48;11.60;99.90
4324;DHT22;2175;51.018;6.994;2023-04-06T14:32:13;11.50;1.00
4324;DHT22;2175;51.018;6.994;2023-04-06T14:34:39;11.60;1.00
4324;DHT22;2175;51.018;6.994;2023-04-06T14:37:05;11.60;99.90
4324;DHT22;2175;51.018;6.994;2023-04-06T14:39:31;11.70;99.90
4324;DHT22;2175;51.018;6.994;2023-04-06T14:41:57;11.70;1.00
4324;DHT22;2175;51.018;6.994;2023-04-06T14:44:22;11.60;1.00
4324;DHT22;2175;51.018;6.994;2023-04-06T14:46:48;11.70;1.00
4324;DHT22;2175;51.018;6.994;2023-04-06T14:49:13;11.60;1.00
4324;DHT22;2175;51.018;6.994;2023-04-06T14:51:39;11.50;1.00
4324;DHT22;2175;51.018;6.994;2023-04-06T14:54:05;11.40;1.00
4324;DHT22;2175;51.018;6.994;2023-04-06T14:56:31;11.50;1.00
4324;DHT22;2175;51.018;6.994;2023-04-06T14:58:58;11.50;1.00
4324;DHT22;2175;51.018;6.994;2023-04-06T15:01:24;11.30;1.00
4324;DHT22;2175;51.018;6.994;2023-04-06T15:03:50;11.30;1.00
4324;DHT22;2175;51.018;6.994;2023-04-06T15:06:17;11.30;1.00
4324;DHT22;2175;51.018;6.994;2023-04-06T15:08:45;11.10;1.00
4324;DHT22;2175;51.018;6.994;2023-04-06T15:11:11;11.10;1.00
4324;DHT22;2175;51.018;6.994;2023-04-06T15:13:37;11.00;15.60
4324;DHT22;2175;51.018;6.994;2023-04-06T15:16:04;10.90;23.10
4324;DHT22;2175;51.018;6.994;2023-04-06T15:18:30;10.70;28.30
4324;DHT22;2175;51.018;6.994;2023-04-06T15:20:55;10.60;50.70
4324;DHT22;2175;51.018;6.994;2023-04-06T15:23:21;10.60;39.40
4324;DHT22;2175;51.018;6.994;2023-04-06T15:25:47;10.50;62.80
4324;DHT22;2175;51.018;6.994;2023-04-06T15:28:12;10.40;65.50
4324;DHT22;2175;51.018;6.994;2023-04-06T15:30:38;10.30;93.80
4324;DHT22;2175;51.018;6.994;2023-04-06T15:33:04;10.20;99.40
4324;DHT22;2175;51.018;6.994;2023-04-06T15:35:32;10.20;89.20
4324;DHT22;2175;51.018;6.994;2023-04-06T15:37:59;10.00;99.90
4324;DHT22;2175;51.018;6.994;2023-04-06T15:40:26;10.20;99.90
4324;DHT22;2175;51.018;6.994;2023-04-06T15:42:52;10.10;99.90
4324;DHT22;2175;51.018;6.994;2023-04-06T15:45:18;10.10;99.90
4324;DHT22;2175;51.018;6.994;2023-04-06T15:47:44;10.10;99.90
4324;DHT22;2175;51.018;6.994;2023-04-06T15:50:11;10.10;99.90
4324;DHT22;2175;51.018;6.994;2023-04-06T15:52:37;10.10;99.90
4324;DHT22;2175;51.018;6.994;2023-04-06T15:55:06;10.20;99.90
4324;DHT22;2175;51.018;6.994;2023-04-06T15:57:32;10.10;99.90
4324;DHT22;2175;51.018;6.994;2023-04-06T15:59:58;10.00;99.90
4324;DHT22;2175;51.018;6.994;2023-04-06T16:02:24;9.90;99.90
4324;DHT22;2175;51.018;6.994;2023-04-06T16:04:57;9.60;99.90
4324;DHT22;2175;51.018;6.994;2023-04-06T16:07:23;9.60;99.90
4324;DHT22;2175;51.018;6.994;2023-04-06T16:09:52;9.40;99.90
4324;DHT22;2175;51.018;6.994;2023-04-06T16:12:18;9.40;99.90
4324;DHT22;2175;51.018;6.994;2023-04-06T16:14:44;9.40;99.90
4324;DHT22;2175;51.018;6.994;2023-04-06T16:17:13;9.30;99.90
4324;DHT22;2175;51.018;6.994;2023-04-06T16:19:39;9.40;99.90